createdAt,value
2023-04-08T00:00:28.183Z,5.25
2023-04-08T00:02:54.582Z,5.57
2023-04-08T00:05:20.895Z,4.20
2023-04-08T00:07:47.162Z,3.85
2023-04-08T00:10:13.471Z,6.68
2023-04-08T00:12:39.826Z,5.80
2023-04-08T00:15:06.533Z,5.53
2023-04-08T00:17:33.176Z,4.82
2023-04-08T00:20:00.150Z,4.50
2023-04-08T00:22:26.461Z,4.57
2023-04-08T00:24:52.713Z,6.03
2023-04-08T00:27:18.986Z,5.90
2023-04-08T00:29:45.253Z,4.15
2023-04-08T00:32:11.919Z,6.28
2023-04-08T00:34:38.597Z,6.30
2023-04-08T00:37:04.926Z,4.97
2023-04-08T00:39:31.338Z,4.95
2023-04-08T00:41:57.791Z,5.88
2023-04-08T00:44:24.069Z,5.97
2023-04-08T00:46:50.361Z,4.10
2023-04-08T00:49:17.494Z,6.78
2023-04-08T00:51:43.852Z,6.68
2023-04-08T00:54:10.270Z,5.15
2023-04-08T00:56:36.682Z,4.68
2023-04-08T00:59:03.443Z,6.15
2023-04-08T01:01:48.938Z,6.15
2023-04-08T01:04:15.408Z,3.47
2023-04-08T01:06:47.069Z,6.13
2023-04-08T01:09:13.919Z,3.97
2023-04-08T01:11:43.391Z,4.45
2023-04-08T01:14:11.920Z,4.50
2023-04-08T01:16:41.678Z,5.35
2023-04-08T01:19:11.802Z,4.38
2023-04-08T01:21:38.768Z,4.80
2023-04-08T01:24:19.875Z,5.57
2023-04-08T01:26:46.950Z,3.83
2023-04-08T01:29:13.856Z,6.75
2023-04-08T01:31:41.397Z,5.93
2023-04-08T01:34:08.123Z,3.60
2023-04-08T01:36:36.041Z,6.38
2023-04-08T01:39:03.008Z,3.45
2023-04-08T01:41:30.345Z,3.67
2023-04-08T01:43:57.074Z,4.90
2023-04-08T01:46:23.472Z,4.65
2023-04-08T01:48:50.891Z,4.55
2023-04-08T01:51:17.807Z,6.88
2023-04-08T01:53:44.241Z,6.22
2023-04-08T01:56:12.882Z,4.45
2023-04-08T01:58:43.527Z,5.70
2023-04-08T02:01:14.635Z,5.60
2023-04-08T02:03:42.665Z,5.97
2023-04-08T02:06:09.054Z,5.28
2023-04-08T02:08:38.507Z,6.82
2023-04-08T02:11:04.844Z,5.90
2023-04-08T02:13:31.617Z,6.22
2023-04-08T02:16:03.374Z,5.70
2023-04-08T02:18:31.692Z,5.05
2023-04-08T02:21:03.110Z,5.88
2023-04-08T02:23:30.502Z,4.07
2023-04-08T02:25:56.820Z,4.25
2023-04-08T02:28:23.589Z,4.85
2023-04-08T02:30:52.841Z,5.50
2023-04-08T02:33:20.680Z,5.03
2023-04-08T02:35:49.672Z,5.00
2023-04-08T02:38:16.169Z,4.82
2023-04-08T02:40:42.689Z,3.95
2023-04-08T02:43:09.001Z,4.75
2023-04-08T02:45:40.862Z,4.15
2023-04-08T02:48:07.317Z,4.95
2023-04-08T02:50:33.764Z,4.65
2023-04-08T02:53:00.040Z,5.63
2023-04-08T02:55:26.465Z,5.65
2023-04-08T02:57:52.795Z,4.88
2023-04-08T03:00:19.107Z,4.45
2023-04-08T03:02:45.631Z,5.30
2023-04-08T03:05:12.116Z,5.38
2023-04-08T03:07:38.633Z,5.05
2023-04-08T03:10:05.466Z,4.93
2023-04-08T03:12:31.944Z,4.07
2023-04-08T03:14:58.340Z,3.72
2023-04-08T03:17:24.682Z,4.20
2023-04-08T03:19:51.242Z,4.63
2023-04-08T03:22:17.546Z,4.38
2023-04-08T03:24:43.861Z,4.85
2023-04-08T03:27:10.460Z,5.13
2023-04-08T03:29:36.836Z,6.05
2023-04-08T03:32:03.428Z,6.43
2023-04-08T03:34:29.809Z,5.93
2023-04-08T03:36:56.117Z,5.78
2023-04-08T03:39:22.473Z,5.85
2023-04-08T03:41:48.763Z,4.45
2023-04-08T03:44:15.232Z,6.93
2023-04-08T03:46:41.605Z,4.75
2023-04-08T03:49:07.878Z,6.32
2023-04-08T03:51:34.187Z,5.10
2023-04-08T03:54:00.529Z,5.40
2023-04-08T03:56:26.973Z,5.00
2023-04-08T03:58:53.330Z,4.78
2023-04-08T04:01:19.622Z,4.72
2023-04-08T04:03:46.162Z,7.15
2023-04-08T04:06:12.558Z,7.57
2023-04-08T04:08:38.842Z,6.53
2023-04-08T04:11:05.235Z,5.35
2023-04-08T04:13:31.656Z,5.57
2023-04-08T04:15:58.218Z,6.20
2023-04-08T04:18:24.607Z,5.78
2023-04-08T04:20:50.935Z,6.88
2023-04-08T04:23:17.236Z,4.97
2023-04-08T04:25:44.197Z,7.53
2023-04-08T04:28:10.521Z,5.40
2023-04-08T04:30:37.663Z,6.25
2023-04-08T04:33:04.223Z,6.65
2023-04-08T04:35:31.069Z,7.10
2023-04-08T04:37:57.448Z,5.93
2023-04-08T04:40:23.780Z,8.85
2023-04-08T04:42:50.243Z,6.43
2023-04-08T04:45:16.689Z,5.55
2023-04-08T04:47:43.122Z,7.32
2023-04-08T04:50:09.788Z,5.45
2023-04-08T04:52:36.286Z,4.40
2023-04-08T04:55:02.629Z,6.78
2023-04-08T04:57:28.935Z,5.18
2023-04-08T04:59:55.360Z,8.43
2023-04-08T05:02:22.081Z,6.47
2023-04-08T05:04:48.503Z,5.53
2023-04-08T05:07:14.768Z,6.10
2023-04-08T05:09:41.018Z,6.10
2023-04-08T05:12:07.387Z,6.53
2023-04-08T05:14:33.793Z,5.97
2023-04-08T05:17:00.104Z,8.60
2023-04-08T05:19:26.594Z,6.00
2023-04-08T05:21:52.867Z,7.25
2023-04-08T05:24:19.178Z,7.35
2023-04-08T05:26:45.706Z,7.75
2023-04-08T05:29:12.596Z,6.57
2023-04-08T05:31:38.968Z,10.10
2023-04-08T05:34:05.233Z,6.35
2023-04-08T05:36:34.029Z,7.25
2023-04-08T05:39:02.124Z,8.02
2023-04-08T05:41:29.726Z,6.80
2023-04-08T05:43:56.754Z,7.20
2023-04-08T05:46:23.103Z,6.38
2023-04-08T05:48:49.637Z,6.93
2023-04-08T05:51:17.948Z,7.43
2023-04-08T05:53:47.553Z,7.18
2023-04-08T05:56:14.071Z,6.38
2023-04-08T05:58:43.698Z,7.40
2023-04-08T06:01:10.062Z,6.40
2023-04-08T06:03:36.559Z,6.22
2023-04-08T06:06:03.042Z,7.30
2023-04-08T06:08:29.729Z,9.10
2023-04-08T06:10:56.083Z,9.20
2023-04-08T06:13:22.711Z,6.28
2023-04-08T06:15:49.930Z,7.03
2023-04-08T06:18:16.832Z,6.45
2023-04-08T06:20:43.098Z,8.38
2023-04-08T06:23:09.462Z,9.93
2023-04-08T06:25:35.773Z,6.40
2023-04-08T06:28:02.429Z,7.40
2023-04-08T06:30:28.849Z,6.60
2023-04-08T06:32:55.303Z,7.50
2023-04-08T06:35:21.793Z,6.82
2023-04-08T06:37:48.203Z,7.97
2023-04-08T06:40:14.509Z,8.48
2023-04-08T06:42:43.122Z,8.30
2023-04-08T06:45:09.713Z,8.00
2023-04-08T06:47:36.323Z,7.93
2023-04-08T06:50:02.756Z,7.43
2023-04-08T06:52:29.082Z,11.82
2023-04-08T06:54:55.403Z,8.20
2023-04-08T06:57:21.779Z,9.80
2023-04-08T06:59:48.262Z,6.70
2023-04-08T07:02:15.807Z,7.38
2023-04-08T07:04:43.532Z,8.32
2023-04-08T07:07:11.344Z,9.40
2023-04-08T07:09:37.698Z,7.30
2023-04-08T07:12:04.942Z,9.15
2023-04-08T07:14:31.411Z,8.20
2023-04-08T07:16:57.768Z,7.25
2023-04-08T07:19:24.576Z,9.43
2023-04-08T07:21:52.518Z,7.20
2023-04-08T07:24:19.005Z,9.05
2023-04-08T07:26:45.293Z,7.65
2023-04-08T07:29:11.707Z,9.75
2023-04-08T07:31:38.008Z,9.52
2023-04-08T07:34:04.458Z,8.55
2023-04-08T07:36:30.798Z,12.18
2023-04-08T07:38:57.145Z,12.43
2023-04-08T07:41:23.502Z,10.98
2023-04-08T07:43:49.821Z,9.82
2023-04-08T07:46:16.220Z,12.55
2023-04-08T07:48:42.585Z,14.10
2023-04-08T07:51:11.315Z,14.30
2023-04-08T07:53:38.745Z,12.60
2023-04-08T07:56:10.662Z,12.63
2023-04-08T07:58:37.015Z,12.23
2023-04-08T08:01:03.604Z,14.25
2023-04-08T08:03:31.888Z,13.98
2023-04-08T08:05:59.613Z,17.02
2023-04-08T08:08:25.844Z,16.58
2023-04-08T08:10:52.154Z,15.90
2023-04-08T08:13:21.139Z,16.73
2023-04-08T08:15:52.496Z,15.85
2023-04-08T08:18:18.951Z,20.27
2023-04-08T08:20:45.320Z,18.42
2023-04-08T08:23:11.913Z,16.17
2023-04-08T08:25:38.245Z,15.38
2023-04-08T08:28:04.705Z,16.02
2023-04-08T08:30:32.312Z,17.25
2023-04-08T08:33:00.738Z,15.07
2023-04-08T08:35:27.279Z,17.13
2023-04-08T08:37:53.707Z,21.75
2023-04-08T08:40:20.338Z,17.90
2023-04-08T08:42:52.951Z,16.75
2023-04-08T08:45:19.748Z,18.10
2023-04-08T08:47:46.245Z,21.58
2023-04-08T08:50:12.655Z,19.75
2023-04-08T08:52:38.953Z,22.85
2023-04-08T08:55:21.541Z,17.90
2023-04-08T09:00:18.444Z,19.23
2023-04-08T09:02:44.907Z,17.48
2023-04-08T09:05:11.620Z,23.05
2023-04-08T09:07:40.653Z,21.38
2023-04-08T09:10:07.315Z,20.88
2023-04-08T09:12:33.681Z,19.27
2023-04-08T09:15:03.736Z,22.23
2023-04-08T09:17:34.187Z,20.17
2023-04-08T09:20:09.769Z,20.63
2023-04-08T09:22:54.777Z,19.95
2023-04-08T09:25:25.513Z,21.15
2023-04-08T09:27:53.060Z,19.23
2023-04-08T09:30:19.941Z,19.85
2023-04-08T09:33:07.314Z,18.88
2023-04-08T09:35:33.784Z,20.00
2023-04-08T09:38:01.067Z,17.80
2023-04-08T09:40:27.750Z,18.65
2023-04-08T09:42:55.008Z,18.25
2023-04-08T09:45:21.680Z,17.80
2023-04-08T09:47:52.221Z,17.92
2023-04-08T09:50:20.126Z,19.50
2023-04-08T09:52:50.268Z,18.50
2023-04-08T09:55:19.756Z,17.42
2023-04-08T09:58:08.729Z,18.20
2023-04-08T10:00:38.852Z,16.77
2023-04-08T10:03:05.323Z,16.00
2023-04-08T10:05:31.888Z,17.92
2023-04-08T10:07:58.330Z,16.80
2023-04-08T10:10:25.387Z,20.10
2023-04-08T10:12:51.851Z,18.38
2023-04-08T10:15:27.319Z,19.15
2023-04-08T10:17:54.342Z,18.42
2023-04-08T10:20:39.128Z,18.70
2023-04-08T10:23:09.922Z,17.17
2023-04-08T10:25:39.498Z,18.70
2023-04-08T10:28:15.352Z,16.95
2023-04-08T10:30:44.523Z,17.73
2023-04-08T10:33:33.572Z,15.50
2023-04-08T10:36:12.698Z,19.40
2023-04-08T10:38:39.464Z,19.27
2023-04-08T10:41:05.840Z,16.92
2023-04-08T10:43:32.918Z,15.07
2023-04-08T10:45:59.264Z,15.43
2023-04-08T10:48:26.427Z,14.23
2023-04-08T10:50:54.317Z,15.80
2023-04-08T10:53:33.692Z,16.20
2023-04-08T10:56:04.923Z,14.43
2023-04-08T10:58:31.232Z,18.70
2023-04-08T11:01:03.016Z,16.55
2023-04-08T11:03:33.644Z,14.77
2023-04-08T11:06:00.637Z,15.68
2023-04-08T11:08:33.470Z,16.92
2023-04-08T11:11:04.375Z,14.85
2023-04-08T11:13:31.812Z,18.67
2023-04-08T11:15:58.669Z,16.40
2023-04-08T11:18:25.121Z,16.67
2023-04-08T11:20:52.105Z,14.77
2023-04-08T11:23:18.670Z,15.00
2023-04-08T11:25:45.742Z,14.68
2023-04-08T11:28:12.987Z,17.60
2023-04-08T11:30:40.439Z,15.13
2023-04-08T11:33:10.169Z,15.82
2023-04-08T11:35:40.382Z,14.82
2023-04-08T11:38:06.792Z,14.02
2023-04-08T11:40:33.094Z,14.68
2023-04-08T11:42:59.401Z,14.30
2023-04-08T11:45:26.556Z,15.93
2023-04-08T11:47:54.072Z,14.27
2023-04-08T11:50:24.695Z,15.48
2023-04-08T11:52:51.511Z,14.05
2023-04-08T11:55:25.086Z,13.18
2023-04-08T11:57:52.768Z,14.48
2023-04-08T12:00:19.679Z,13.10
2023-04-08T12:02:47.996Z,13.45
2023-04-08T12:05:14.999Z,13.40
2023-04-08T12:07:41.579Z,12.18
2023-04-08T12:10:08.294Z,12.48
2023-04-08T12:12:34.777Z,13.45
2023-04-08T12:15:01.180Z,11.40
2023-04-08T12:17:27.617Z,13.80
2023-04-08T12:19:53.938Z,11.15
2023-04-08T12:22:20.510Z,12.88
2023-04-08T12:24:46.901Z,11.98
2023-04-08T12:27:13.247Z,11.63
2023-04-08T12:29:39.900Z,12.82
2023-04-08T12:32:06.213Z,13.68
2023-04-08T12:34:32.792Z,12.07
2023-04-08T12:36:59.562Z,12.38
2023-04-08T12:39:25.865Z,10.65
2023-04-08T12:41:52.354Z,10.27
2023-04-08T12:44:19.225Z,10.50
2023-04-08T12:46:46.095Z,10.85
2023-04-08T12:49:12.521Z,9.32
2023-04-08T12:51:40.084Z,10.85
2023-04-08T12:54:06.420Z,10.18
2023-04-08T12:56:33.011Z,11.05
2023-04-08T12:58:59.585Z,9.90
2023-04-08T13:01:25.985Z,9.85
2023-04-08T13:03:52.631Z,8.80
2023-04-08T13:06:19.091Z,9.15
2023-04-08T13:08:45.469Z,8.55
2023-04-08T13:11:11.806Z,9.45
2023-04-08T13:13:38.168Z,9.40
2023-04-08T13:16:04.532Z,10.00
2023-04-08T13:18:31.046Z,9.43
2023-04-08T13:20:58.560Z,8.77
2023-04-08T13:23:24.848Z,8.82
2023-04-08T13:25:51.637Z,9.05
2023-04-08T13:28:17.908Z,9.50
2023-04-08T13:30:44.250Z,9.25
2023-04-08T13:33:10.844Z,10.43
2023-04-08T13:35:37.251Z,9.65
2023-04-08T13:38:16.302Z,8.48
2023-04-08T13:40:43.728Z,8.85
2023-04-08T13:43:10.051Z,9.35
2023-04-08T13:45:36.451Z,9.30
2023-04-08T13:48:02.836Z,9.25
2023-04-08T13:50:29.151Z,8.18
2023-04-08T13:52:57.056Z,8.00
2023-04-08T13:55:23.418Z,10.23
2023-04-08T13:57:49.775Z,8.75
2023-04-08T14:00:16.624Z,8.05
2023-04-08T14:02:43.143Z,7.82
2023-04-08T14:05:09.703Z,8.80
2023-04-08T14:07:35.998Z,7.32
2023-04-08T14:10:02.339Z,8.38
2023-04-08T14:12:28.662Z,10.90
2023-04-08T14:14:55.110Z,9.05
2023-04-08T14:17:21.402Z,9.23
2023-04-08T14:19:50.006Z,7.57
2023-04-08T14:22:16.968Z,7.22
2023-04-08T14:24:43.487Z,7.88
2023-04-08T14:27:09.835Z,9.57
2023-04-08T14:29:36.158Z,10.35
2023-04-08T14:32:02.502Z,8.63
2023-04-08T14:34:28.824Z,10.02
2023-04-08T14:36:55.100Z,7.78
2023-04-08T14:39:21.721Z,8.88
2023-04-08T14:41:48.032Z,7.15
2023-04-08T14:44:14.344Z,8.63
2023-04-08T14:46:40.765Z,6.82
2023-04-08T14:49:07.254Z,11.40
2023-04-08T14:51:33.718Z,9.43
2023-04-08T14:54:00.167Z,8.73
2023-04-08T14:56:26.485Z,8.70
2023-04-08T14:58:52.957Z,8.52
2023-04-08T15:01:19.438Z,9.60
2023-04-08T15:03:46.322Z,9.02
2023-04-08T15:06:16.993Z,8.60
2023-04-08T15:08:43.934Z,13.32
2023-04-08T15:11:10.385Z,8.45
2023-04-08T15:13:36.685Z,6.65
2023-04-08T15:16:03.147Z,7.30
2023-04-08T15:18:29.512Z,9.18
2023-04-08T15:20:56.476Z,7.47
2023-04-08T15:23:23.074Z,8.15
2023-04-08T15:25:49.543Z,6.18
2023-04-08T15:28:16.478Z,9.15
2023-04-08T15:30:43.361Z,9.32
2023-04-08T15:33:09.857Z,7.90
2023-04-08T15:35:37.973Z,7.05
2023-04-08T15:38:04.302Z,9.15
2023-04-08T15:40:33.767Z,8.82
2023-04-08T15:43:00.334Z,7.15
2023-04-08T15:45:26.648Z,8.43
2023-04-08T15:47:53.101Z,7.63
2023-04-08T15:50:19.436Z,6.93
2023-04-08T15:52:45.926Z,9.43
2023-04-08T15:55:12.319Z,6.03
2023-04-08T15:57:38.954Z,7.50
2023-04-08T16:00:11.952Z,6.70
2023-04-08T16:02:38.727Z,5.80
2023-04-08T16:05:05.411Z,9.85
2023-04-08T16:07:31.715Z,9.52
2023-04-08T16:09:58.997Z,7.68
2023-04-08T16:12:25.546Z,6.18
2023-04-08T16:14:52.065Z,6.13
2023-04-08T16:17:18.310Z,8.23
2023-04-08T16:19:47.276Z,8.30
2023-04-08T16:22:13.665Z,5.93
2023-04-08T16:24:40.067Z,7.60
2023-04-08T16:27:06.657Z,6.18
2023-04-08T16:29:32.974Z,5.95
2023-04-08T16:31:59.398Z,9.13
2023-04-08T16:34:44.825Z,8.30
2023-04-08T16:37:12.259Z,6.70
2023-04-08T16:39:39.502Z,5.75
2023-04-08T16:42:05.954Z,11.57
2023-04-08T16:44:32.272Z,7.53
2023-04-08T16:46:58.513Z,7.10
2023-04-08T16:49:24.935Z,6.07
2023-04-08T16:51:51.205Z,6.57
2023-04-08T16:54:17.497Z,6.13
2023-04-08T16:56:45.664Z,8.23
2023-04-08T16:59:12.244Z,9.43
2023-04-08T17:01:38.619Z,7.68
2023-04-08T17:04:05.116Z,9.13
2023-04-08T17:06:31.658Z,14.75
2023-04-08T17:08:58.022Z,12.73
2023-04-08T17:11:24.346Z,8.00
2023-04-08T17:14:02.819Z,21.98
2023-04-08T17:16:29.125Z,10.65
2023-04-08T17:18:55.636Z,11.05
2023-04-08T17:21:21.958Z,10.73
2023-04-08T17:23:48.408Z,11.43
2023-04-08T17:26:14.856Z,9.20
2023-04-08T17:28:41.201Z,9.55
2023-04-08T17:31:07.545Z,8.07
2023-04-08T17:33:34.055Z,14.23
2023-04-08T17:36:00.430Z,9.77
2023-04-08T17:38:26.822Z,8.43
2023-04-08T17:40:53.241Z,8.50
2023-04-08T17:43:19.664Z,9.82
2023-04-08T17:45:46.842Z,12.00
2023-04-08T17:48:16.318Z,12.35
2023-04-08T17:50:45.515Z,7.72
2023-04-08T17:53:11.902Z,11.15
2023-04-08T17:55:38.305Z,8.93
2023-04-08T17:58:04.765Z,10.18
2023-04-08T18:00:31.423Z,8.88
2023-04-08T18:02:57.907Z,10.05
2023-04-08T18:05:38.016Z,15.00
2023-04-08T18:08:04.588Z,7.78
2023-04-08T18:10:31.005Z,11.93
2023-04-08T18:13:10.337Z,7.47
2023-04-08T18:15:38.424Z,9.63
2023-04-08T18:18:04.986Z,6.45
2023-04-08T18:21:00.445Z,11.02
2023-04-08T18:26:11.126Z,9.82
2023-04-08T18:28:37.491Z,7.97
2023-04-08T18:31:03.911Z,9.30
2023-04-08T18:33:30.517Z,8.70
2023-04-08T18:35:59.531Z,9.10
2023-04-08T18:38:26.050Z,10.90
2023-04-08T18:40:53.394Z,8.57
2023-04-08T18:44:31.097Z,8.07
2023-04-08T18:46:57.390Z,8.82
2023-04-08T18:49:26.665Z,11.63
2023-04-08T18:52:02.362Z,9.35
2023-04-08T18:54:30.027Z,10.30
2023-04-08T18:56:56.540Z,8.43
2023-04-08T18:59:23.485Z,9.10
2023-04-08T19:01:49.964Z,9.02
2023-04-08T19:04:18.108Z,9.90
2023-04-08T19:06:44.903Z,9.02
2023-04-08T19:09:11.694Z,8.63
2023-04-08T19:11:40.368Z,9.57
2023-04-08T19:14:08.427Z,8.73
2023-04-08T19:16:34.897Z,11.63
2023-04-08T19:19:03.990Z,13.88
2023-04-08T19:21:31.659Z,7.93
2023-04-08T19:23:57.982Z,10.27
2023-04-08T19:26:24.301Z,8.43
2023-04-08T19:28:50.719Z,12.05
2023-04-08T19:31:17.626Z,8.82
2023-04-08T19:33:44.476Z,11.55
2023-04-08T19:36:11.434Z,10.15
2023-04-08T19:38:37.956Z,12.25
2023-04-08T19:41:04.270Z,11.38
2023-04-08T19:43:30.610Z,12.40
2023-04-08T19:45:57.280Z,11.95
2023-04-08T19:48:24.006Z,12.93
2023-04-08T19:50:52.110Z,12.18
2023-04-08T19:53:18.716Z,13.48
2023-04-08T19:55:45.750Z,14.68
2023-04-08T19:58:12.012Z,13.77
2023-04-08T20:00:38.550Z,13.00
2023-04-08T20:03:06.731Z,13.82
2023-04-08T20:05:33.415Z,15.32
2023-04-08T20:07:59.716Z,14.07
2023-04-08T20:10:26.113Z,15.68
2023-04-08T20:12:52.720Z,14.30
2023-04-08T20:15:24.610Z,16.30
2023-04-08T20:17:52.568Z,16.55
2023-04-08T20:20:18.933Z,15.00
2023-04-08T20:22:46.414Z,15.48
2023-04-08T20:25:12.719Z,15.20
2023-04-08T20:27:39.019Z,18.10
2023-04-08T20:30:06.046Z,15.57
2023-04-08T20:32:32.302Z,15.82
2023-04-08T20:34:59.808Z,15.73
2023-04-08T20:37:26.259Z,14.45
2023-04-08T20:39:52.655Z,15.55
2023-04-08T20:42:18.896Z,14.48
2023-04-08T20:44:45.335Z,15.10
2023-04-08T20:47:11.767Z,15.32
2023-04-08T20:49:40.938Z,14.60
2023-04-08T20:52:07.217Z,14.27
2023-04-08T20:54:33.533Z,14.88
2023-04-08T20:56:59.854Z,15.57
2023-04-08T20:59:26.116Z,14.75
2023-04-08T21:01:53.743Z,12.38
2023-04-08T21:04:20.793Z,14.27
2023-04-08T21:06:48.214Z,14.73
2023-04-08T21:09:14.903Z,13.60
2023-04-08T21:11:41.320Z,16.90
2023-04-08T21:14:07.677Z,14.55
2023-04-08T21:16:34.143Z,15.68
2023-04-08T21:19:01.924Z,14.77
2023-04-08T21:21:28.383Z,15.02
2023-04-08T21:23:54.733Z,15.98
2023-04-08T21:26:21.884Z,15.38
2023-04-08T21:28:49.986Z,12.77
2023-04-08T21:31:16.666Z,15.20
2023-04-08T21:33:42.978Z,14.65
2023-04-08T21:36:09.418Z,13.57
2023-04-08T21:38:35.982Z,13.00
2023-04-08T21:41:02.273Z,13.60
2023-04-08T21:43:28.629Z,13.05
2023-04-08T21:45:54.943Z,12.40
2023-04-08T21:48:21.430Z,13.10
2023-04-08T21:50:47.777Z,13.50
2023-04-08T21:53:14.156Z,13.27
2023-04-08T21:55:40.618Z,13.10
2023-04-08T21:58:06.921Z,12.43
2023-04-08T22:00:33.240Z,15.13
2023-04-08T22:02:59.725Z,15.35
2023-04-08T22:05:26.403Z,13.82
2023-04-08T22:07:52.676Z,14.13
2023-04-08T22:10:19.005Z,13.98
2023-04-08T22:12:45.845Z,17.45
2023-04-08T22:15:12.141Z,13.82
2023-04-08T22:17:38.571Z,15.00
2023-04-08T22:20:05.300Z,14.57
2023-04-08T22:22:31.650Z,12.50
2023-04-08T22:24:57.897Z,14.23
2023-04-08T22:27:24.205Z,15.10
2023-04-08T22:29:50.700Z,12.38
2023-04-08T22:32:18.147Z,13.05
2023-04-08T22:34:44.445Z,12.35
2023-04-08T22:37:10.700Z,12.38
2023-04-08T22:39:37.064Z,12.02
2023-04-08T22:42:03.401Z,12.18
2023-04-08T22:44:29.650Z,11.55
2023-04-08T22:46:56.243Z,12.55
2023-04-08T22:49:22.514Z,12.13
2023-04-08T22:51:49.245Z,12.32
2023-04-08T22:54:15.711Z,12.27
2023-04-08T22:56:42.093Z,12.27
2023-04-08T22:59:08.350Z,11.95
2023-04-08T23:01:35.796Z,10.80
2023-04-08T23:04:02.174Z,11.70
2023-04-08T23:06:28.819Z,10.75
2023-04-08T23:08:55.279Z,12.27
2023-04-08T23:11:21.764Z,11.13
2023-04-08T23:13:48.379Z,10.48
2023-04-08T23:16:14.778Z,10.90
2023-04-08T23:18:41.147Z,9.60
2023-04-08T23:21:07.421Z,10.75
2023-04-08T23:23:33.737Z,10.25
2023-04-08T23:26:00.095Z,10.90
2023-04-08T23:28:26.412Z,9.73
2023-04-08T23:30:52.782Z,10.07
2023-04-08T23:33:19.147Z,10.77
2023-04-08T23:35:45.436Z,9.57
2023-04-08T23:38:12.830Z,10.43
2023-04-08T23:40:39.409Z,9.73
2023-04-08T23:43:05.731Z,10.32
2023-04-08T23:45:32.078Z,10.82
2023-04-08T23:47:58.451Z,10.95
2023-04-08T23:50:24.734Z,9.30
2023-04-08T23:52:51.262Z,11.07
2023-04-08T23:55:17.622Z,9.80
2023-04-08T23:57:44.047Z,10.45
